createdAt,value
2018-09-06T00:01:03.149Z,15.27
2018-09-06T00:03:30.506Z,17.97
2018-09-06T00:05:57.808Z,15.73
2018-09-06T00:08:25.167Z,15.47
2018-09-06T00:10:52.563Z,14.57
2018-09-06T00:13:20.032Z,14.50
2018-09-06T00:15:47.562Z,13.40
2018-09-06T00:18:14.895Z,12.63
2018-09-06T00:20:42.206Z,11.40
2018-09-06T00:23:09.533Z,10.90
2018-09-06T00:25:37.282Z,11.23
2018-09-06T00:28:04.890Z,11.00
2018-09-06T00:30:32.213Z,12.03
2018-09-06T00:32:59.648Z,11.20
2018-09-06T00:35:26.999Z,11.40
2018-09-06T00:37:54.663Z,10.63
2018-09-06T00:40:21.982Z,11.53
2018-09-06T00:42:49.368Z,11.00
2018-09-06T00:45:16.767Z,13.07
2018-09-06T00:47:44.115Z,12.33
2018-09-06T00:50:15.630Z,11.67
2018-09-06T00:52:43.309Z,11.40
2018-09-06T00:55:10.649Z,11.93
2018-09-06T00:57:38.120Z,12.53
2018-09-06T01:00:05.491Z,12.27
2018-09-06T01:02:32.783Z,14.17
2018-09-06T01:05:00.109Z,13.30
2018-09-06T01:07:27.420Z,14.97
2018-09-06T01:09:54.715Z,13.47
2018-09-06T01:12:22.188Z,14.93
2018-09-06T01:14:49.510Z,13.73
2018-09-06T01:17:16.839Z,14.87
2018-09-06T01:19:44.477Z,13.93
2018-09-06T01:22:11.783Z,17.40
2018-09-06T01:24:39.171Z,14.90
2018-09-06T01:27:06.768Z,15.63
2018-09-06T01:29:34.059Z,17.90
2018-09-06T01:32:01.798Z,15.17
2018-09-06T01:34:29.175Z,15.43
2018-09-06T01:36:56.527Z,15.27
2018-09-06T01:39:23.819Z,16.03
2018-09-06T01:41:51.308Z,17.40
2018-09-06T01:44:18.634Z,16.37
2018-09-06T01:46:45.933Z,15.57
2018-09-06T01:49:13.295Z,16.47
2018-09-06T01:51:40.594Z,17.23
2018-09-06T01:54:07.923Z,18.97
2018-09-06T01:56:35.445Z,21.03
2018-09-06T01:59:02.782Z,18.00
2018-09-06T02:01:30.196Z,17.60
2018-09-06T02:03:57.524Z,19.63
2018-09-06T02:06:25.155Z,19.70
2018-09-06T02:08:52.554Z,19.30
2018-09-06T02:11:20.011Z,20.43
2018-09-06T02:13:47.683Z,17.83
2018-09-06T02:16:15.030Z,20.03
2018-09-06T02:18:42.343Z,20.93
2018-09-06T02:21:09.650Z,21.10
2018-09-06T02:23:37.008Z,19.97
2018-09-06T02:26:04.473Z,20.07
2018-09-06T02:28:31.802Z,21.83
2018-09-06T02:30:59.135Z,21.60
2018-09-06T02:33:26.491Z,22.57
2018-09-06T02:35:53.814Z,21.80
2018-09-06T02:38:21.139Z,24.43
2018-09-06T02:40:48.471Z,24.70
2018-09-06T02:43:15.814Z,23.70
2018-09-06T02:45:44.000Z,19.73
2018-09-06T02:48:11.355Z,20.27
2018-09-06T02:50:44.490Z,20.43
2018-09-06T02:53:12.016Z,21.47
2018-09-06T02:55:39.616Z,21.73
2018-09-06T02:58:06.954Z,23.33
2018-09-06T03:00:35.846Z,24.03
2018-09-06T03:03:03.170Z,24.27
2018-09-06T03:05:30.503Z,21.67
2018-09-06T03:07:58.767Z,22.23
2018-09-06T03:10:30.059Z,20.70
2018-09-06T03:12:57.375Z,22.80
2018-09-06T03:15:24.938Z,20.17
2018-09-06T03:17:52.251Z,22.23
2018-09-06T03:20:20.290Z,21.43
2018-09-06T03:22:47.604Z,21.57
2018-09-06T03:25:14.933Z,21.57
2018-09-06T03:27:42.232Z,22.17
2018-09-06T03:30:09.583Z,22.63
2018-09-06T03:32:36.966Z,20.77
2018-09-06T03:35:04.314Z,22.23
2018-09-06T03:37:32.035Z,21.87
2018-09-06T03:39:59.367Z,23.70
2018-09-06T03:42:26.682Z,21.80
2018-09-06T03:44:54.019Z,23.30
2018-09-06T03:47:21.331Z,21.50
2018-09-06T03:49:48.631Z,21.27
2018-09-06T03:52:15.960Z,21.03
2018-09-06T03:54:43.294Z,20.97
2018-09-06T03:57:10.567Z,22.37
2018-09-06T03:59:37.887Z,21.30
2018-09-06T04:02:05.203Z,21.77
2018-09-06T04:04:32.539Z,21.77
2018-09-06T04:06:59.872Z,20.93
2018-09-06T04:09:27.170Z,22.10
2018-09-06T04:11:54.489Z,19.93
2018-09-06T04:14:21.815Z,21.43
2018-09-06T04:16:49.221Z,21.30
2018-09-06T04:19:16.510Z,21.83
2018-09-06T04:21:43.901Z,21.47
2018-09-06T04:24:11.261Z,20.33
2018-09-06T04:26:38.532Z,22.47
2018-09-06T04:29:06.081Z,22.03
2018-09-06T04:31:33.395Z,22.70
2018-09-06T04:34:00.753Z,23.10
2018-09-06T04:36:28.073Z,22.60
2018-09-06T04:38:55.380Z,22.27
2018-09-06T04:41:22.711Z,22.40
2018-09-06T04:43:50.197Z,22.53
2018-09-06T04:46:17.473Z,22.70
2018-09-06T04:48:44.821Z,21.80
2018-09-06T04:51:12.163Z,21.37
2018-09-06T04:53:39.727Z,22.37
2018-09-06T04:56:07.034Z,22.73
2018-09-06T04:58:34.346Z,22.50
2018-09-06T05:01:01.699Z,21.83
2018-09-06T05:03:29.069Z,21.40
2018-09-06T05:05:56.365Z,23.57
2018-09-06T05:08:23.654Z,25.47
2018-09-06T05:10:50.972Z,21.70
2018-09-06T05:13:18.350Z,23.37
2018-09-06T05:15:45.826Z,21.33
2018-09-06T05:18:13.231Z,23.30
2018-09-06T05:20:40.564Z,23.60
2018-09-06T05:23:08.011Z,23.73
2018-09-06T05:25:35.431Z,23.20
2018-09-06T05:28:02.739Z,20.87
2018-09-06T05:30:30.058Z,22.93
2018-09-06T05:32:57.355Z,21.93
2018-09-06T05:35:24.635Z,22.80
2018-09-06T05:37:52.103Z,23.70
2018-09-06T05:40:19.469Z,22.33
2018-09-06T05:42:47.043Z,23.50
2018-09-06T05:45:14.346Z,22.73
2018-09-06T05:47:41.687Z,23.17
2018-09-06T05:50:08.982Z,21.87
2018-09-06T05:52:36.319Z,21.83
2018-09-06T05:55:03.623Z,23.10
2018-09-06T05:57:30.959Z,22.07
2018-09-06T05:59:58.299Z,23.33
2018-09-06T06:02:25.598Z,22.70
2018-09-06T06:04:52.966Z,24.33
2018-09-06T06:07:20.843Z,23.03
2018-09-06T06:09:48.257Z,22.93
2018-09-06T06:12:15.646Z,23.40
2018-09-06T06:14:42.958Z,22.17
2018-09-06T06:17:10.285Z,22.93
2018-09-06T06:19:37.636Z,21.63
2018-09-06T06:22:04.977Z,23.97
2018-09-06T06:24:32.303Z,23.53
2018-09-06T06:26:59.642Z,22.53
2018-09-06T06:29:26.978Z,22.47
2018-09-06T06:31:54.348Z,23.53
2018-09-06T06:34:21.599Z,23.17
2018-09-06T06:36:48.938Z,23.00
2018-09-06T06:39:16.324Z,23.37
2018-09-06T06:41:43.635Z,23.93
2018-09-06T06:44:11.211Z,22.23
2018-09-06T06:46:38.645Z,24.90
2018-09-06T06:49:06.409Z,23.47
2018-09-06T06:51:33.823Z,25.73
2018-09-06T06:54:01.180Z,24.97
2018-09-06T06:56:28.850Z,24.67
2018-09-06T06:58:56.169Z,24.93
2018-09-06T07:01:23.451Z,26.07
2018-09-06T07:03:50.797Z,26.93
2018-09-06T07:06:18.091Z,25.60
2018-09-06T07:08:45.627Z,25.07
2018-09-06T07:11:12.936Z,26.43
2018-09-06T07:13:40.249Z,26.20
2018-09-06T07:16:07.576Z,26.40
2018-09-06T07:18:34.990Z,26.73
2018-09-06T07:21:02.366Z,29.23
2018-09-06T07:23:29.670Z,29.67
2018-09-06T07:25:57.007Z,29.73
2018-09-06T07:28:24.312Z,29.13
2018-09-06T07:30:51.647Z,29.17
2018-09-06T07:33:18.971Z,28.60
2018-09-06T07:35:46.325Z,30.40
2018-09-06T07:38:13.651Z,26.93
2018-09-06T07:40:40.967Z,28.77
2018-09-06T07:43:08.275Z,25.73
2018-09-06T07:45:35.585Z,26.90
2018-09-06T07:48:02.887Z,27.50
2018-09-06T07:50:30.196Z,27.50
2018-09-06T07:52:57.477Z,26.40
2018-09-06T07:55:24.988Z,26.70
2018-09-06T07:57:52.356Z,26.87
2018-09-06T08:00:19.658Z,29.40
2018-09-06T08:02:47.059Z,24.67
2018-09-06T08:05:14.393Z,25.80
2018-09-06T08:07:41.712Z,23.00
2018-09-06T08:10:09.041Z,23.43
2018-09-06T08:12:36.355Z,24.77
2018-09-06T08:15:03.807Z,22.73
2018-09-06T08:17:31.162Z,21.43
2018-09-06T08:19:58.543Z,23.47
2018-09-06T08:22:25.864Z,22.33
2018-09-06T08:24:53.197Z,18.93
2018-09-06T08:27:20.536Z,18.27
2018-09-06T08:29:47.910Z,18.03
2018-09-06T08:32:15.255Z,17.67
2018-09-06T08:34:42.553Z,16.80
2018-09-06T08:37:09.855Z,19.10
2018-09-06T08:39:37.462Z,19.33
2018-09-06T08:42:04.807Z,18.17
2018-09-06T08:44:32.126Z,18.17
2018-09-06T08:46:59.432Z,17.60
2018-09-06T08:49:26.820Z,18.10
2018-09-06T08:51:54.177Z,19.80
2018-09-06T08:54:21.534Z,20.10
2018-09-06T08:56:48.851Z,20.10
2018-09-06T08:59:16.272Z,17.97
2018-09-06T09:01:43.726Z,17.80
2018-09-06T09:04:11.059Z,16.77
2018-09-06T09:06:38.793Z,17.37
2018-09-06T09:09:12.443Z,16.50
2018-09-06T09:11:39.943Z,16.93
2018-09-06T09:14:07.399Z,17.67
2018-09-06T09:16:35.000Z,15.80
2018-09-06T09:19:02.327Z,17.93
2018-09-06T09:21:29.730Z,15.73
2018-09-06T09:23:57.060Z,16.73
2018-09-06T09:26:24.395Z,15.67
2018-09-06T09:28:51.951Z,17.77
2018-09-06T09:31:19.248Z,16.30
2018-09-06T09:33:46.649Z,17.13
2018-09-06T09:36:13.972Z,17.70
2018-09-06T09:38:41.372Z,17.73
2018-09-06T09:41:08.687Z,17.70
2018-09-06T09:43:36.039Z,17.37
2018-09-06T09:48:30.336Z,16.53
2018-09-06T09:50:57.690Z,15.47
2018-09-06T09:53:25.046Z,17.00
2018-09-06T09:55:52.623Z,15.30
2018-09-06T09:58:19.932Z,14.93
2018-09-06T10:00:47.436Z,14.47
2018-09-06T10:03:20.571Z,13.90
2018-09-06T10:05:53.829Z,14.80
2018-09-06T10:08:26.966Z,15.73
2018-09-06T10:10:54.359Z,14.83
2018-09-06T10:13:21.754Z,14.23
2018-09-06T10:15:49.114Z,15.10
2018-09-06T10:18:16.573Z,14.10
2018-09-06T10:20:43.967Z,13.83
2018-09-06T10:23:11.873Z,15.33
2018-09-06T10:25:39.224Z,15.13
2018-09-06T10:28:06.635Z,18.37
2018-09-06T10:30:33.939Z,16.23
2018-09-06T10:33:01.348Z,15.73
2018-09-06T10:35:29.594Z,15.43
2018-09-06T10:37:56.815Z,17.57
2018-09-06T10:40:24.322Z,18.30
2018-09-06T10:42:51.670Z,16.67
2018-09-06T10:45:18.957Z,16.87
2018-09-06T10:47:46.420Z,16.90
2018-09-06T10:50:13.730Z,17.63
2018-09-06T10:52:41.103Z,16.60
2018-09-06T10:55:08.519Z,15.00
2018-09-06T10:57:35.938Z,17.40
2018-09-06T11:00:03.300Z,17.40
2018-09-06T11:02:30.751Z,17.00
2018-09-06T11:04:58.115Z,18.00
2018-09-06T11:07:25.465Z,17.53
2018-09-06T11:09:52.803Z,17.53
2018-09-06T11:12:20.315Z,16.73
2018-09-06T11:14:47.611Z,16.50
2018-09-06T11:17:14.976Z,16.07
2018-09-06T11:19:42.299Z,18.93
2018-09-06T11:22:09.716Z,19.57
2018-09-06T11:24:37.020Z,21.50
2018-09-06T11:27:04.313Z,23.57
2018-09-06T11:29:31.714Z,21.93
2018-09-06T11:31:59.085Z,23.27
2018-09-06T11:34:26.555Z,25.77
2018-09-06T11:36:53.943Z,25.33
2018-09-06T11:39:22.072Z,27.70
2018-09-06T11:41:49.475Z,26.47
2018-09-06T11:44:16.800Z,26.77
2018-09-06T11:46:44.143Z,26.60
2018-09-06T11:49:11.516Z,28.43
2018-09-06T11:51:39.083Z,29.47
2018-09-06T11:54:06.407Z,27.80
2018-09-06T11:56:33.746Z,29.60
2018-09-06T11:59:01.086Z,28.83
2018-09-06T12:01:28.484Z,26.53
2018-09-06T12:03:55.875Z,28.33
2018-09-06T12:06:23.264Z,29.37
2018-09-06T12:08:50.618Z,28.47
2018-09-06T12:11:18.203Z,29.47
2018-09-06T12:13:45.604Z,29.50
2018-09-06T12:16:12.848Z,30.30
2018-09-06T12:18:40.127Z,28.50
2018-09-06T12:21:07.496Z,32.37
2018-09-06T12:23:34.828Z,32.80
2018-09-06T12:26:02.171Z,30.53
2018-09-06T12:28:29.552Z,31.00
2018-09-06T12:30:57.129Z,29.87
2018-09-06T12:33:24.578Z,31.83
2018-09-06T12:35:51.947Z,30.73
2018-09-06T12:38:19.250Z,31.17
2018-09-06T12:40:46.794Z,32.33
2018-09-06T12:43:14.331Z,32.53
2018-09-06T12:45:41.688Z,33.17
2018-09-06T12:48:09.034Z,30.40
2018-09-06T12:50:36.411Z,31.60
2018-09-06T12:53:03.891Z,32.70
2018-09-06T12:55:31.227Z,30.10
2018-09-06T12:57:58.529Z,32.57
2018-09-06T13:00:25.875Z,31.53
2018-09-06T13:02:53.407Z,32.40
2018-09-06T13:05:20.737Z,31.17
2018-09-06T13:07:48.065Z,29.53
2018-09-06T13:10:15.405Z,30.40
2018-09-06T13:12:42.719Z,31.93
2018-09-06T13:15:10.035Z,31.63
2018-09-06T13:17:37.371Z,33.73
2018-09-06T13:20:05.839Z,31.33
2018-09-06T13:22:33.203Z,31.87
2018-09-06T13:25:00.563Z,33.10
2018-09-06T13:27:27.896Z,34.13
2018-09-06T13:29:55.232Z,33.70
2018-09-06T13:32:22.520Z,30.10
2018-09-06T13:34:49.823Z,25.53
2018-09-06T13:37:17.130Z,17.80
2018-09-06T13:39:44.454Z,18.03
2018-09-06T13:42:11.765Z,20.97
2018-09-06T13:44:39.089Z,23.10
2018-09-06T13:47:06.564Z,22.33
2018-09-06T13:49:33.930Z,24.83
2018-09-06T13:52:01.308Z,28.37
2018-09-06T13:54:28.860Z,31.23
2018-09-06T13:56:56.229Z,31.60
2018-09-06T13:59:23.572Z,31.90
2018-09-06T14:01:50.912Z,35.47
2018-09-06T14:04:18.248Z,37.23
2018-09-06T14:06:45.573Z,32.63
2018-09-06T14:09:12.900Z,34.23
2018-09-06T14:11:40.255Z,31.73
2018-09-06T14:14:08.117Z,31.77
2018-09-06T14:16:35.586Z,26.57
2018-09-06T14:19:02.905Z,27.30
2018-09-06T14:21:30.194Z,27.17
2018-09-06T14:23:57.601Z,26.50
2018-09-06T14:26:24.915Z,25.13
2018-09-06T14:28:52.231Z,30.70
2018-09-06T14:31:19.699Z,28.03
2018-09-06T14:33:47.078Z,26.43
2018-09-06T14:36:14.631Z,28.43
2018-09-06T14:38:42.071Z,26.67
2018-09-06T14:41:09.476Z,27.67
2018-09-06T14:43:36.804Z,27.03
2018-09-06T14:46:04.103Z,25.03
2018-09-06T14:48:31.419Z,23.83
2018-09-06T14:50:58.827Z,23.33
2018-09-06T14:53:26.181Z,24.50
2018-09-06T14:55:54.107Z,23.50
2018-09-06T14:58:21.425Z,22.83
2018-09-06T15:00:48.769Z,20.77
2018-09-06T15:03:16.103Z,22.60
2018-09-06T15:05:43.486Z,22.90
2018-09-06T15:08:10.847Z,21.97
2018-09-06T15:10:38.151Z,21.60
2018-09-06T15:13:05.707Z,19.23
2018-09-06T15:15:33.029Z,18.70
2018-09-06T15:18:00.329Z,18.47
2018-09-06T15:20:27.665Z,12.83
2018-09-06T15:22:55.023Z,10.90
2018-09-06T15:25:22.605Z,10.60
2018-09-06T15:27:50.146Z,8.57
2018-09-06T15:30:17.468Z,7.20
2018-09-06T15:32:44.755Z,6.57
2018-09-06T15:35:12.170Z,6.97
2018-09-06T15:37:39.577Z,6.20
2018-09-06T15:40:06.939Z,6.27
2018-09-06T15:42:34.337Z,6.30
2018-09-06T15:45:01.683Z,6.73
2018-09-06T15:47:29.013Z,6.73
2018-09-06T15:49:56.359Z,7.07
2018-09-06T15:52:23.651Z,8.17
2018-09-06T15:54:57.786Z,8.17
2018-09-06T15:57:25.063Z,8.07
2018-09-06T15:59:52.352Z,9.37
2018-09-06T16:02:20.175Z,8.83
2018-09-06T16:04:48.582Z,9.50
2018-09-06T16:07:15.900Z,9.83
2018-09-06T16:09:43.256Z,9.03
2018-09-06T16:12:10.597Z,8.90
2018-09-06T16:14:37.973Z,8.87
2018-09-06T16:17:12.016Z,8.80
2018-09-06T16:19:39.359Z,8.17
2018-09-06T16:22:06.692Z,8.10
2018-09-06T16:24:34.080Z,9.23
2018-09-06T16:27:01.325Z,10.17
2018-09-06T16:29:28.623Z,9.20
2018-09-06T16:31:55.919Z,9.30
2018-09-06T16:34:23.324Z,8.10
2018-09-06T16:36:50.655Z,8.30
2018-09-06T16:39:18.011Z,8.13
2018-09-06T16:41:45.352Z,8.33
2018-09-06T16:44:12.642Z,7.77
2018-09-06T16:46:39.920Z,7.10
2018-09-06T16:49:07.250Z,7.67
2018-09-06T16:51:34.584Z,7.23
2018-09-06T16:54:01.897Z,7.40
2018-09-06T16:56:29.211Z,7.70
2018-09-06T16:58:56.526Z,6.80
2018-09-06T17:01:23.815Z,6.27
2018-09-06T17:03:52.015Z,7.50
2018-09-06T17:06:19.320Z,7.10
2018-09-06T17:08:46.636Z,6.13
2018-09-06T17:11:13.965Z,5.93
2018-09-06T17:13:41.285Z,5.10
2018-09-06T17:16:09.277Z,4.93
2018-09-06T17:18:36.859Z,5.40
2018-09-06T17:21:04.204Z,4.63
2018-09-06T17:23:31.523Z,5.23
2018-09-06T17:25:59.007Z,4.60
2018-09-06T17:28:26.287Z,4.43
2018-09-06T17:30:53.599Z,4.40
2018-09-06T17:33:21.098Z,3.67
2018-09-06T17:35:48.387Z,3.60
2018-09-06T17:38:15.712Z,3.50
2018-09-06T17:40:43.016Z,4.10
2018-09-06T17:43:10.360Z,3.80
2018-09-06T17:45:37.819Z,3.60
2018-09-06T17:48:05.421Z,3.53
2018-09-06T17:50:32.774Z,3.17
2018-09-06T17:53:00.136Z,3.73
2018-09-06T17:55:27.484Z,3.70
2018-09-06T17:57:54.795Z,3.83
2018-09-06T18:00:28.776Z,5.00
2018-09-06T18:02:56.113Z,4.13
2018-09-06T18:05:23.439Z,4.20
2018-09-06T18:07:50.764Z,5.33
2018-09-06T18:10:18.103Z,8.27
2018-09-06T18:12:45.730Z,10.33
2018-09-06T18:15:13.108Z,11.73
2018-09-06T18:17:40.557Z,9.60
2018-09-06T18:20:07.798Z,9.00
2018-09-06T18:22:35.183Z,8.60
2018-09-06T18:25:02.668Z,6.60
2018-09-06T18:27:30.136Z,6.67
2018-09-06T18:29:57.623Z,5.03
2018-09-06T18:32:25.027Z,4.57
2018-09-06T18:34:52.356Z,4.70
2018-09-06T18:37:20.024Z,5.17
2018-09-06T18:39:47.430Z,4.03
2018-09-06T18:42:14.753Z,4.10
2018-09-06T18:44:42.107Z,4.07
2018-09-06T18:47:09.481Z,4.10
2018-09-06T18:49:36.859Z,3.50
2018-09-06T18:52:04.235Z,3.83
2018-09-06T18:54:31.577Z,4.00
2018-09-06T18:56:59.320Z,3.87
2018-09-06T18:59:26.828Z,3.90
2018-09-06T19:01:54.198Z,3.70
2018-09-06T19:04:21.481Z,3.90
2018-09-06T19:06:48.803Z,3.80
2018-09-06T19:09:16.196Z,3.90
2018-09-06T19:11:43.785Z,4.53
2018-09-06T19:14:11.097Z,3.73
2018-09-06T19:16:38.544Z,3.37
2018-09-06T19:19:05.958Z,4.67
2018-09-06T19:21:33.659Z,4.73
2018-09-06T19:24:01.100Z,4.90
2018-09-06T19:26:28.475Z,4.50
2018-09-06T19:28:55.862Z,4.40
2018-09-06T19:31:23.200Z,4.90
2018-09-06T19:33:50.581Z,5.07
2018-09-06T19:36:18.005Z,5.27
2018-09-06T19:38:45.341Z,4.33
2018-09-06T19:41:12.636Z,5.40
2018-09-06T19:43:40.035Z,5.43
2018-09-06T19:46:07.379Z,4.60
2018-09-06T19:51:13.840Z,4.50
2018-09-06T19:53:41.178Z,4.43
2018-09-06T19:56:08.504Z,4.17
2018-09-06T19:58:35.811Z,4.90
2018-09-06T20:01:03.119Z,4.10
2018-09-06T20:03:30.531Z,4.10
2018-09-06T20:05:57.879Z,4.07
2018-09-06T20:08:25.246Z,3.97
2018-09-06T20:10:52.563Z,4.43
2018-09-06T20:13:19.932Z,4.37
2018-09-06T20:15:47.249Z,4.40
2018-09-06T20:18:14.597Z,4.63
2018-09-06T20:20:42.014Z,4.37
2018-09-06T20:23:09.356Z,4.20
2018-09-06T20:25:36.775Z,3.97
2018-09-06T20:28:04.511Z,4.60
2018-09-06T20:30:31.668Z,4.10
2018-09-06T20:32:59.074Z,6.43
2018-09-06T20:35:26.375Z,5.13
2018-09-06T20:37:53.677Z,5.87
2018-09-06T20:40:20.975Z,6.07
2018-09-06T20:42:48.275Z,7.10
2018-09-06T20:45:15.568Z,6.70
2018-09-06T20:47:42.902Z,6.40
2018-09-06T20:50:10.221Z,7.13
2018-09-06T20:52:37.623Z,7.80
2018-09-06T20:55:04.971Z,7.50
2018-09-06T20:57:32.552Z,8.03
2018-09-06T21:00:00.406Z,8.10
2018-09-06T21:02:32.346Z,8.03
2018-09-06T21:04:59.755Z,8.60
2018-09-06T21:07:27.110Z,8.53
2018-09-06T21:09:54.508Z,9.27
2018-09-06T21:12:22.101Z,9.03
2018-09-06T21:14:49.441Z,9.43
2018-09-06T21:17:16.771Z,8.97
2018-09-06T21:19:44.323Z,8.60
2018-09-06T21:22:11.712Z,9.60
2018-09-06T21:24:39.039Z,9.40
2018-09-06T21:27:06.640Z,9.07
2018-09-06T21:29:33.983Z,9.27
2018-09-06T21:32:01.485Z,9.33
2018-09-06T21:34:29.002Z,8.90
2018-09-06T21:36:56.396Z,8.67
2018-09-06T21:39:23.744Z,8.67
2018-09-06T21:41:51.107Z,8.80
2018-09-06T21:44:18.429Z,8.70
2018-09-06T21:46:45.820Z,8.87
2018-09-06T21:49:13.173Z,8.17
2018-09-06T21:51:40.705Z,9.33
2018-09-06T21:54:08.074Z,8.40
2018-09-06T21:56:35.376Z,8.73
2018-09-06T21:59:02.707Z,9.10
2018-09-06T22:01:30.021Z,9.00
2018-09-06T22:04:00.603Z,9.00
2018-09-06T22:06:28.032Z,8.00
2018-09-06T22:08:55.556Z,8.20
2018-09-06T22:11:22.900Z,8.30
2018-09-06T22:13:50.267Z,8.53
2018-09-06T22:16:17.701Z,9.10
2018-09-06T22:18:45.143Z,7.87
2018-09-06T22:21:12.506Z,8.50
2018-09-06T22:23:39.847Z,8.37
2018-09-06T22:26:07.220Z,7.73
2018-09-06T22:28:34.520Z,8.63
2018-09-06T22:31:02.237Z,7.33
2018-09-06T22:33:29.825Z,8.37
2018-09-06T22:35:57.228Z,7.67
2018-09-06T22:38:24.550Z,7.67
2018-09-06T22:40:52.026Z,8.20
2018-09-06T22:43:19.400Z,7.80
2018-09-06T22:45:46.767Z,8.70
2018-09-06T22:48:14.192Z,8.00
2018-09-06T22:50:41.570Z,7.67
2018-09-06T22:53:08.878Z,8.57
2018-09-06T22:55:36.421Z,8.00
2018-09-06T22:58:03.787Z,7.63
2018-09-06T23:00:31.560Z,8.60
2018-09-06T23:03:04.699Z,7.73
2018-09-06T23:05:32.902Z,8.27
2018-09-06T23:08:00.779Z,7.90
2018-09-06T23:10:28.439Z,7.47
2018-09-06T23:12:55.764Z,8.10
2018-09-06T23:15:23.123Z,8.67
2018-09-06T23:17:50.472Z,9.17
2018-09-06T23:20:17.857Z,9.17
2018-09-06T23:22:45.250Z,8.67
2018-09-06T23:25:12.584Z,9.30
2018-09-06T23:27:40.014Z,9.27
2018-09-06T23:30:07.355Z,10.40
2018-09-06T23:32:34.710Z,9.70
2018-09-06T23:35:02.035Z,10.70
2018-09-06T23:37:29.339Z,9.40
2018-09-06T23:39:56.674Z,10.30
2018-09-06T23:42:24.815Z,10.03
2018-09-06T23:44:53.236Z,10.03
2018-09-06T23:47:20.646Z,9.40
2018-09-06T23:49:48.255Z,10.50
2018-09-06T23:52:15.840Z,11.17
2018-09-06T23:54:43.373Z,11.63
2018-09-06T23:57:10.703Z,11.23
2018-09-06T23:59:38.365Z,11.33
